sensor_id;sensor_type;location;lat;lon;timestamp;P1;durP1;ratioP1;P2;durP2;ratioP2
29214;SDS011;16252;49.816;7.964;2022-09-13T00:00:30;3.25;;;2.65;;
29214;SDS011;16252;49.816;7.964;2022-09-13T00:02:56;2.38;;;1.70;;
29214;SDS011;16252;49.816;7.964;2022-09-13T00:05:21;2.17;;;1.90;;
29214;SDS011;16252;49.816;7.964;2022-09-13T00:07:47;2.33;;;1.58;;
29214;SDS011;16252;49.816;7.964;2022-09-13T00:10:13;3.58;;;1.50;;
29214;SDS011;16252;49.816;7.964;2022-09-13T00:12:39;1.85;;;1.63;;
29214;SDS011;16252;49.816;7.964;2022-09-13T00:15:04;3.60;;;1.95;;
29214;SDS011;16252;49.816;7.964;2022-09-13T00:17:30;5.57;;;1.70;;
29214;SDS011;16252;49.816;7.964;2022-09-13T00:19:55;1.90;;;1.70;;
29214;SDS011;16252;49.816;7.964;2022-09-13T00:22:21;2.72;;;1.83;;
29214;SDS011;16252;49.816;7.964;2022-09-13T00:24:46;1.83;;;1.65;;
29214;SDS011;16252;49.816;7.964;2022-09-13T00:27:11;1.75;;;1.50;;
29214;SDS011;16252;49.816;7.964;2022-09-13T00:29:37;2.33;;;1.55;;
29214;SDS011;16252;49.816;7.964;2022-09-13T00:32:02;1.77;;;1.20;;
29214;SDS011;16252;49.816;7.964;2022-09-13T00:34:28;2.40;;;1.65;;
29214;SDS011;16252;49.816;7.964;2022-09-13T00:36:54;3.30;;;1.70;;
29214;SDS011;16252;49.816;7.964;2022-09-13T00:39:19;2.08;;;1.50;;
29214;SDS011;16252;49.816;7.964;2022-09-13T00:41:45;2.38;;;1.80;;
29214;SDS011;16252;49.816;7.964;2022-09-13T00:47:14;2.33;;;1.58;;
29214;SDS011;16252;49.816;7.964;2022-09-13T00:49:44;2.55;;;1.90;;
29214;SDS011;16252;49.816;7.964;2022-09-13T00:52:13;1.77;;;1.67;;
29214;SDS011;16252;49.816;7.964;2022-09-13T00:57:09;1.60;;;1.50;;
29214;SDS011;16252;49.816;7.964;2022-09-13T00:59:39;2.08;;;1.88;;
29214;SDS011;16252;49.816;7.964;2022-09-13T01:02:11;3.35;;;1.65;;
29214;SDS011;16252;49.816;7.964;2022-09-13T01:04:38;1.88;;;1.65;;
29214;SDS011;16252;49.816;7.964;2022-09-13T01:07:06;3.55;;;1.73;;
29214;SDS011;16252;49.816;7.964;2022-09-13T01:09:34;2.00;;;1.80;;
29214;SDS011;16252;49.816;7.964;2022-09-13T01:12:03;2.00;;;1.83;;
29214;SDS011;16252;49.816;7.964;2022-09-13T01:14:32;2.90;;;1.90;;
29214;SDS011;16252;49.816;7.964;2022-09-13T01:16:58;2.40;;;2.10;;
29214;SDS011;16252;49.816;7.964;2022-09-13T01:19:23;4.53;;;2.08;;
29214;SDS011;16252;49.816;7.964;2022-09-13T01:24:54;2.35;;;1.70;;
29214;SDS011;16252;49.816;7.964;2022-09-13T01:27:36;2.13;;;1.73;;
29214;SDS011;16252;49.816;7.964;2022-09-13T01:30:43;2.40;;;1.73;;
29214;SDS011;16252;49.816;7.964;2022-09-13T01:33:21;2.83;;;1.95;;
29214;SDS011;16252;49.816;7.964;2022-09-13T01:46:43;2.55;;;1.88;;
29214;SDS011;16252;49.816;7.964;2022-09-13T01:52:10;2.95;;;2.10;;
29214;SDS011;16252;49.816;7.964;2022-09-13T01:54:49;2.08;;;1.88;;
29214;SDS011;16252;49.816;7.964;2022-09-13T01:57:37;5.00;;;2.63;;
29214;SDS011;16252;49.816;7.964;2022-09-13T02:00:13;2.33;;;2.10;;
29214;SDS011;16252;49.816;7.964;2022-09-13T02:05:12;2.20;;;1.90;;
29214;SDS011;16252;49.816;7.964;2022-09-13T02:07:41;1.77;;;1.55;;
29214;SDS011;16252;49.816;7.964;2022-09-13T02:10:15;3.55;;;2.10;;
29214;SDS011;16252;49.816;7.964;2022-09-13T02:12:47;3.28;;;1.80;;
29214;SDS011;16252;49.816;7.964;2022-09-13T02:15:18;2.17;;;1.98;;
29214;SDS011;16252;49.816;7.964;2022-09-13T02:17:51;3.00;;;2.08;;
29214;SDS011;16252;49.816;7.964;2022-09-13T02:20:25;2.28;;;1.90;;
29214;SDS011;16252;49.816;7.964;2022-09-13T02:22:55;2.40;;;2.13;;
29214;SDS011;16252;49.816;7.964;2022-09-13T02:25:25;3.65;;;2.35;;
29214;SDS011;16252;49.816;7.964;2022-09-13T02:27:54;2.72;;;2.20;;
29214;SDS011;16252;49.816;7.964;2022-09-13T02:30:24;2.72;;;1.83;;
29214;SDS011;16252;49.816;7.964;2022-09-13T02:32:53;1.90;;;1.60;;
29214;SDS011;16252;49.816;7.964;2022-09-13T02:35:30;2.40;;;1.80;;
29214;SDS011;16252;49.816;7.964;2022-09-13T02:38:04;2.05;;;1.60;;
29214;SDS011;16252;49.816;7.964;2022-09-13T02:40:47;3.28;;;2.05;;
29214;SDS011;16252;49.816;7.964;2022-09-13T02:43:25;2.83;;;2.15;;
29214;SDS011;16252;49.816;7.964;2022-09-13T02:46:01;2.33;;;1.88;;
29214;SDS011;16252;49.816;7.964;2022-09-13T02:51:24;2.70;;;1.95;;
29214;SDS011;16252;49.816;7.964;2022-09-13T02:54:03;2.78;;;1.80;;
29214;SDS011;16252;49.816;7.964;2022-09-13T02:56:43;2.90;;;1.90;;
29214;SDS011;16252;49.816;7.964;2022-09-13T02:59:19;2.30;;;2.10;;
29214;SDS011;16252;49.816;7.964;2022-09-13T03:01:48;2.50;;;1.88;;
29214;SDS011;16252;49.816;7.964;2022-09-13T03:04:18;2.65;;;2.03;;
29214;SDS011;16252;49.816;7.964;2022-09-13T03:06:44;3.25;;;1.90;;
29214;SDS011;16252;49.816;7.964;2022-09-13T03:09:09;2.05;;;1.90;;
29214;SDS011;16252;49.816;7.964;2022-09-13T03:11:49;2.50;;;2.10;;
29214;SDS011;16252;49.816;7.964;2022-09-13T03:23:45;2.67;;;2.00;;
29214;SDS011;16252;49.816;7.964;2022-09-13T03:33:58;1.85;;;1.70;;
29214;SDS011;16252;49.816;7.964;2022-09-13T03:36:39;2.58;;;1.90;;
29214;SDS011;16252;49.816;7.964;2022-09-13T03:41:50;2.55;;;2.08;;
29214;SDS011;16252;49.816;7.964;2022-09-13T03:44:20;2.50;;;1.75;;
29214;SDS011;16252;49.816;7.964;2022-09-13T03:46:48;1.95;;;1.77;;
29214;SDS011;16252;49.816;7.964;2022-09-13T03:49:19;1.95;;;1.75;;
29214;SDS011;16252;49.816;7.964;2022-09-13T03:51:47;3.10;;;1.70;;
29214;SDS011;16252;49.816;7.964;2022-09-13T03:54:18;1.92;;;1.55;;
29214;SDS011;16252;49.816;7.964;2022-09-13T03:59:31;2.55;;;2.00;;
29214;SDS011;16252;49.816;7.964;2022-09-13T04:01:56;2.67;;;2.08;;
29214;SDS011;16252;49.816;7.964;2022-09-13T04:04:21;2.45;;;1.90;;
29214;SDS011;16252;49.816;7.964;2022-09-13T04:06:47;1.90;;;1.58;;
29214;SDS011;16252;49.816;7.964;2022-09-13T04:09:12;2.20;;;1.60;;
29214;SDS011;16252;49.816;7.964;2022-09-13T04:11:37;2.10;;;1.65;;
29214;SDS011;16252;49.816;7.964;2022-09-13T04:14:04;2.15;;;1.85;;
29214;SDS011;16252;49.816;7.964;2022-09-13T04:16:29;2.55;;;2.35;;
29214;SDS011;16252;49.816;7.964;2022-09-13T04:18:54;1.90;;;1.60;;
29214;SDS011;16252;49.816;7.964;2022-09-13T04:21:19;2.33;;;2.00;;
29214;SDS011;16252;49.816;7.964;2022-09-13T04:23:48;2.22;;;1.75;;
29214;SDS011;16252;49.816;7.964;2022-09-13T04:26:14;2.25;;;2.05;;
29214;SDS011;16252;49.816;7.964;2022-09-13T04:28:39;3.70;;;2.03;;
29214;SDS011;16252;49.816;7.964;2022-09-13T04:31:04;2.00;;;1.80;;
29214;SDS011;16252;49.816;7.964;2022-09-13T04:33:30;1.92;;;1.73;;
29214;SDS011;16252;49.816;7.964;2022-09-13T04:35:58;4.25;;;1.90;;
29214;SDS011;16252;49.816;7.964;2022-09-13T04:38:24;1.80;;;1.70;;
29214;SDS011;16252;49.816;7.964;2022-09-13T04:40:53;2.92;;;1.92;;
29214;SDS011;16252;49.816;7.964;2022-09-13T04:43:20;2.20;;;2.00;;
29214;SDS011;16252;49.816;7.964;2022-09-13T04:45:46;2.80;;;2.35;;
29214;SDS011;16252;49.816;7.964;2022-09-13T04:48:12;2.83;;;2.10;;
29214;SDS011;16252;49.816;7.964;2022-09-13T04:50:37;1.92;;;1.77;;
29214;SDS011;16252;49.816;7.964;2022-09-13T04:53:02;2.50;;;2.03;;
29214;SDS011;16252;49.816;7.964;2022-09-13T04:55:27;3.05;;;2.22;;
29214;SDS011;16252;49.816;7.964;2022-09-13T04:57:53;2.15;;;1.88;;
29214;SDS011;16252;49.816;7.964;2022-09-13T05:00:20;2.50;;;2.30;;
29214;SDS011;16252;49.816;7.964;2022-09-13T05:02:46;3.40;;;2.40;;
29214;SDS011;16252;49.816;7.964;2022-09-13T05:05:11;2.00;;;1.70;;
29214;SDS011;16252;49.816;7.964;2022-09-13T05:07:36;2.60;;;1.92;;
29214;SDS011;16252;49.816;7.964;2022-09-13T05:10:02;2.28;;;1.70;;
29214;SDS011;16252;49.816;7.964;2022-09-13T05:12:30;4.63;;;2.08;;
29214;SDS011;16252;49.816;7.964;2022-09-13T05:14:55;3.50;;;2.20;;
29214;SDS011;16252;49.816;7.964;2022-09-13T05:17:20;2.15;;;1.85;;
29214;SDS011;16252;49.816;7.964;2022-09-13T05:19:46;4.13;;;1.92;;
29214;SDS011;16252;49.816;7.964;2022-09-13T05:22:15;3.00;;;1.90;;
29214;SDS011;16252;49.816;7.964;2022-09-13T05:24:40;3.00;;;2.03;;
29214;SDS011;16252;49.816;7.964;2022-09-13T05:27:09;4.70;;;2.15;;
29214;SDS011;16252;49.816;7.964;2022-09-13T05:33:51;2.55;;;2.15;;
29214;SDS011;16252;49.816;7.964;2022-09-13T05:36:27;3.05;;;1.92;;
29214;SDS011;16252;49.816;7.964;2022-09-13T05:38:53;2.35;;;2.10;;
29214;SDS011;16252;49.816;7.964;2022-09-13T05:41:19;3.30;;;2.47;;
29214;SDS011;16252;49.816;7.964;2022-09-13T05:43:52;2.97;;;2.47;;
29214;SDS011;16252;49.816;7.964;2022-09-13T05:46:18;3.15;;;2.47;;
29214;SDS011;16252;49.816;7.964;2022-09-13T05:48:45;5.30;;;2.17;;
29214;SDS011;16252;49.816;7.964;2022-09-13T05:51:19;4.20;;;2.58;;
29214;SDS011;16252;49.816;7.964;2022-09-13T05:53:53;2.15;;;1.95;;
29214;SDS011;16252;49.816;7.964;2022-09-13T05:56:23;4.78;;;3.03;;
29214;SDS011;16252;49.816;7.964;2022-09-13T05:58:54;3.90;;;2.42;;
29214;SDS011;16252;49.816;7.964;2022-09-13T06:01:21;4.60;;;2.75;;
29214;SDS011;16252;49.816;7.964;2022-09-13T06:03:48;3.20;;;2.90;;
29214;SDS011;16252;49.816;7.964;2022-09-13T06:06:15;4.13;;;3.10;;
29214;SDS011;16252;49.816;7.964;2022-09-13T06:08:41;3.60;;;2.72;;
29214;SDS011;16252;49.816;7.964;2022-09-13T06:11:07;12.20;;;9.88;;
29214;SDS011;16252;49.816;7.964;2022-09-13T06:13:35;6.25;;;5.32;;
29214;SDS011;16252;49.816;7.964;2022-09-13T06:16:02;18.02;;;8.82;;
29214;SDS011;16252;49.816;7.964;2022-09-13T06:18:32;7.97;;;5.60;;
29214;SDS011;16252;49.816;7.964;2022-09-13T06:21:02;9.48;;;4.97;;
29214;SDS011;16252;49.816;7.964;2022-09-13T06:23:29;8.52;;;4.20;;
29214;SDS011;16252;49.816;7.964;2022-09-13T06:26:03;5.35;;;3.78;;
29214;SDS011;16252;49.816;7.964;2022-09-13T06:28:40;3.53;;;2.75;;
29214;SDS011;16252;49.816;7.964;2022-09-13T06:31:31;4.75;;;2.80;;
29214;SDS011;16252;49.816;7.964;2022-09-13T06:34:44;2.95;;;2.65;;
29214;SDS011;16252;49.816;7.964;2022-09-13T06:37:15;2.30;;;2.10;;
29214;SDS011;16252;49.816;7.964;2022-09-13T06:46:29;3.30;;;2.50;;
29214;SDS011;16252;49.816;7.964;2022-09-13T06:51:29;2.35;;;2.15;;
29214;SDS011;16252;49.816;7.964;2022-09-13T06:53:55;5.40;;;2.70;;
29214;SDS011;16252;49.816;7.964;2022-09-13T06:56:24;4.35;;;2.42;;
29214;SDS011;16252;49.816;7.964;2022-09-13T06:58:54;4.05;;;2.53;;
29214;SDS011;16252;49.816;7.964;2022-09-13T07:01:27;3.20;;;2.53;;
29214;SDS011;16252;49.816;7.964;2022-09-13T07:04:04;3.33;;;2.83;;
29214;SDS011;16252;49.816;7.964;2022-09-13T07:06:32;3.70;;;3.10;;
29214;SDS011;16252;49.816;7.964;2022-09-13T07:09:08;3.88;;;2.80;;
29214;SDS011;16252;49.816;7.964;2022-09-13T07:11:44;4.82;;;3.20;;
29214;SDS011;16252;49.816;7.964;2022-09-13T07:17:13;4.88;;;3.30;;
29214;SDS011;16252;49.816;7.964;2022-09-13T07:19:39;4.28;;;2.95;;
29214;SDS011;16252;49.816;7.964;2022-09-13T07:22:04;4.40;;;2.60;;
29214;SDS011;16252;49.816;7.964;2022-09-13T07:24:30;6.07;;;2.90;;
29214;SDS011;16252;49.816;7.964;2022-09-13T07:26:55;3.55;;;3.10;;
29214;SDS011;16252;49.816;7.964;2022-09-13T07:29:20;4.65;;;2.92;;
29214;SDS011;16252;49.816;7.964;2022-09-13T07:31:55;6.13;;;3.10;;
29214;SDS011;16252;49.816;7.964;2022-09-13T07:34:23;4.03;;;3.10;;
29214;SDS011;16252;49.816;7.964;2022-09-13T07:36:49;5.13;;;3.15;;
29214;SDS011;16252;49.816;7.964;2022-09-13T07:39:16;4.93;;;3.20;;
29214;SDS011;16252;49.816;7.964;2022-09-13T07:41:43;6.88;;;3.50;;
29214;SDS011;16252;49.816;7.964;2022-09-13T07:44:09;5.45;;;3.08;;
29214;SDS011;16252;49.816;7.964;2022-09-13T07:46:35;4.88;;;2.97;;
29214;SDS011;16252;49.816;7.964;2022-09-13T07:49:04;4.78;;;3.45;;
29214;SDS011;16252;49.816;7.964;2022-09-13T07:51:31;3.42;;;2.78;;
29214;SDS011;16252;49.816;7.964;2022-09-13T07:54:09;4.80;;;3.42;;
29214;SDS011;16252;49.816;7.964;2022-09-13T07:56:39;3.85;;;3.45;;
29214;SDS011;16252;49.816;7.964;2022-09-13T07:59:06;8.48;;;3.50;;
29214;SDS011;16252;49.816;7.964;2022-09-13T08:01:40;4.72;;;3.70;;
29214;SDS011;16252;49.816;7.964;2022-09-13T08:04:13;5.95;;;3.67;;
29214;SDS011;16252;49.816;7.964;2022-09-13T08:06:43;6.63;;;3.70;;
29214;SDS011;16252;49.816;7.964;2022-09-13T08:09:12;5.40;;;3.97;;
29214;SDS011;16252;49.816;7.964;2022-09-13T08:11:38;4.90;;;3.50;;
29214;SDS011;16252;49.816;7.964;2022-09-13T08:14:12;5.07;;;3.30;;
29214;SDS011;16252;49.816;7.964;2022-09-13T08:16:39;6.18;;;3.80;;
29214;SDS011;16252;49.816;7.964;2022-09-13T08:19:04;6.57;;;3.67;;
29214;SDS011;16252;49.816;7.964;2022-09-13T08:21:35;6.82;;;4.10;;
29214;SDS011;16252;49.816;7.964;2022-09-13T08:24:11;3.97;;;3.45;;
29214;SDS011;16252;49.816;7.964;2022-09-13T08:26:41;5.82;;;3.63;;
29214;SDS011;16252;49.816;7.964;2022-09-13T08:29:06;5.32;;;3.67;;
29214;SDS011;16252;49.816;7.964;2022-09-13T08:31:32;4.07;;;3.17;;
29214;SDS011;16252;49.816;7.964;2022-09-13T08:34:00;4.90;;;3.53;;
29214;SDS011;16252;49.816;7.964;2022-09-13T08:36:45;7.68;;;3.67;;
29214;SDS011;16252;49.816;7.964;2022-09-13T08:39:10;7.60;;;3.53;;
29214;SDS011;16252;49.816;7.964;2022-09-13T08:44:17;5.45;;;3.85;;
29214;SDS011;16252;49.816;7.964;2022-09-13T08:52:38;6.38;;;4.80;;
29214;SDS011;16252;49.816;7.964;2022-09-13T09:00:50;3.20;;;2.85;;
29214;SDS011;16252;49.816;7.964;2022-09-13T09:03:45;3.20;;;2.83;;
29214;SDS011;16252;49.816;7.964;2022-09-13T09:06:16;3.33;;;2.72;;
29214;SDS011;16252;49.816;7.964;2022-09-13T09:09:06;3.00;;;2.70;;
29214;SDS011;16252;49.816;7.964;2022-09-13T09:11:50;4.00;;;3.15;;
29214;SDS011;16252;49.816;7.964;2022-09-13T09:14:31;3.17;;;2.70;;
29214;SDS011;16252;49.816;7.964;2022-09-13T09:17:01;4.70;;;3.08;;
29214;SDS011;16252;49.816;7.964;2022-09-13T09:19:33;3.95;;;3.30;;
29214;SDS011;16252;49.816;7.964;2022-09-13T09:22:05;4.35;;;3.08;;
29214;SDS011;16252;49.816;7.964;2022-09-13T09:24:37;4.72;;;3.08;;
29214;SDS011;16252;49.816;7.964;2022-09-13T09:27:11;4.63;;;3.38;;
29214;SDS011;16252;49.816;7.964;2022-09-13T09:29:39;5.30;;;4.10;;
29214;SDS011;16252;49.816;7.964;2022-09-13T09:37:20;3.45;;;3.10;;
29214;SDS011;16252;49.816;7.964;2022-09-13T09:39:50;5.55;;;3.65;;
29214;SDS011;16252;49.816;7.964;2022-09-13T09:42:20;6.43;;;3.53;;
29214;SDS011;16252;49.816;7.964;2022-09-13T09:44:50;4.82;;;3.88;;
29214;SDS011;16252;49.816;7.964;2022-09-13T09:47:19;6.07;;;3.55;;
29214;SDS011;16252;49.816;7.964;2022-09-13T09:49:49;5.47;;;3.42;;
29214;SDS011;16252;49.816;7.964;2022-09-13T09:52:45;5.68;;;3.08;;
29214;SDS011;16252;49.816;7.964;2022-09-13T09:58:03;2.60;;;2.40;;
29214;SDS011;16252;49.816;7.964;2022-09-13T10:00:36;3.33;;;2.70;;
29214;SDS011;16252;49.816;7.964;2022-09-13T10:03:19;3.03;;;2.33;;
29214;SDS011;16252;49.816;7.964;2022-09-13T10:05:48;2.53;;;2.15;;
29214;SDS011;16252;49.816;7.964;2022-09-13T10:08:23;3.22;;;2.38;;
29214;SDS011;16252;49.816;7.964;2022-09-13T10:10:53;2.10;;;1.90;;
29214;SDS011;16252;49.816;7.964;2022-09-13T10:13:21;2.50;;;2.20;;
29214;SDS011;16252;49.816;7.964;2022-09-13T10:15:58;3.65;;;2.17;;
29214;SDS011;16252;49.816;7.964;2022-09-13T10:18:35;3.13;;;2.35;;
29214;SDS011;16252;49.816;7.964;2022-09-13T10:21:20;2.85;;;2.45;;
29214;SDS011;16252;49.816;7.964;2022-09-13T10:23:49;2.60;;;2.22;;
29214;SDS011;16252;49.816;7.964;2022-09-13T10:26:19;3.17;;;2.50;;
29214;SDS011;16252;49.816;7.964;2022-09-13T10:28:59;3.67;;;2.58;;
29214;SDS011;16252;49.816;7.964;2022-09-13T10:31:35;4.03;;;2.53;;
29214;SDS011;16252;49.816;7.964;2022-09-13T10:36:50;2.90;;;2.40;;
29214;SDS011;16252;49.816;7.964;2022-09-13T10:39:20;2.65;;;2.42;;
29214;SDS011;16252;49.816;7.964;2022-09-13T10:41:52;3.45;;;2.72;;
29214;SDS011;16252;49.816;7.964;2022-09-13T10:44:22;2.78;;;2.38;;
29214;SDS011;16252;49.816;7.964;2022-09-13T10:46:53;2.33;;;2.13;;
29214;SDS011;16252;49.816;7.964;2022-09-13T10:58:25;3.33;;;2.60;;
29214;SDS011;16252;49.816;7.964;2022-09-13T11:00:34;2.95;;;2.50;;
29214;SDS011;16252;49.816;7.964;2022-09-13T11:06:05;3.95;;;2.90;;
29214;SDS011;16252;49.816;7.964;2022-09-13T11:08:52;4.82;;;2.85;;
29214;SDS011;16252;49.816;7.964;2022-09-13T11:13:54;2.80;;;2.50;;
29214;SDS011;16252;49.816;7.964;2022-09-13T11:19:55;4.18;;;2.50;;
29214;SDS011;16252;49.816;7.964;2022-09-13T11:28:41;4.55;;;2.70;;
29214;SDS011;16252;49.816;7.964;2022-09-13T11:34:31;2.67;;;2.47;;
29214;SDS011;16252;49.816;7.964;2022-09-13T11:37:21;2.40;;;2.17;;
29214;SDS011;16252;49.816;7.964;2022-09-13T11:40:34;3.75;;;2.22;;
29214;SDS011;16252;49.816;7.964;2022-09-13T11:46:17;4.03;;;2.40;;
29214;SDS011;16252;49.816;7.964;2022-09-13T11:49:26;3.72;;;2.65;;
29214;SDS011;16252;49.816;7.964;2022-09-13T11:57:28;3.80;;;2.50;;
29214;SDS011;16252;49.816;7.964;2022-09-13T12:02:59;3.55;;;2.50;;
29214;SDS011;16252;49.816;7.964;2022-09-13T12:05:31;2.75;;;2.53;;
29214;SDS011;16252;49.816;7.964;2022-09-13T12:08:12;3.55;;;2.40;;
29214;SDS011;16252;49.816;7.964;2022-09-13T12:10:53;2.90;;;2.63;;
29214;SDS011;16252;49.816;7.964;2022-09-13T12:13:28;3.72;;;2.35;;
29214;SDS011;16252;49.816;7.964;2022-09-13T12:15:56;3.70;;;2.38;;
29214;SDS011;16252;49.816;7.964;2022-09-13T12:21:08;3.83;;;2.30;;
29214;SDS011;16252;49.816;7.964;2022-09-13T12:23:41;3.83;;;2.60;;
29214;SDS011;16252;49.816;7.964;2022-09-13T12:26:21;3.55;;;2.70;;
29214;SDS011;16252;49.816;7.964;2022-09-13T12:28:52;3.30;;;2.70;;
29214;SDS011;16252;49.816;7.964;2022-09-13T12:31:24;7.32;;;3.55;;
29214;SDS011;16252;49.816;7.964;2022-09-13T12:33:51;4.07;;;2.50;;
29214;SDS011;16252;49.816;7.964;2022-09-13T12:41:45;2.70;;;2.33;;
29214;SDS011;16252;49.816;7.964;2022-09-13T12:44:30;2.53;;;2.13;;
29214;SDS011;16252;49.816;7.964;2022-09-13T12:47:15;3.90;;;2.53;;
29214;SDS011;16252;49.816;7.964;2022-09-13T12:52:54;3.08;;;2.13;;
29214;SDS011;16252;49.816;7.964;2022-09-13T13:01:20;2.67;;;2.47;;
29214;SDS011;16252;49.816;7.964;2022-09-13T13:03:49;4.70;;;2.85;;
29214;SDS011;16252;49.816;7.964;2022-09-13T13:06:32;3.53;;;2.70;;
29214;SDS011;16252;49.816;7.964;2022-09-13T13:09:03;3.75;;;2.50;;
29214;SDS011;16252;49.816;7.964;2022-09-13T13:11:45;2.20;;;2.00;;
29214;SDS011;16252;49.816;7.964;2022-09-13T13:20:00;2.28;;;1.92;;
29214;SDS011;16252;49.816;7.964;2022-09-13T13:23:12;3.00;;;2.00;;
29214;SDS011;16252;49.816;7.964;2022-09-13T13:34:00;3.50;;;2.10;;
29214;SDS011;16252;49.816;7.964;2022-09-13T13:39:03;4.82;;;1.83;;
29214;SDS011;16252;49.816;7.964;2022-09-13T13:57:33;2.83;;;1.65;;
29214;SDS011;16252;49.816;7.964;2022-09-13T14:00:21;2.75;;;2.20;;
29214;SDS011;16252;49.816;7.964;2022-09-13T14:14:07;2.13;;;1.90;;
29214;SDS011;16252;49.816;7.964;2022-09-13T14:19:19;2.75;;;2.35;;
29214;SDS011;16252;49.816;7.964;2022-09-13T14:22:04;2.35;;;2.15;;
29214;SDS011;16252;49.816;7.964;2022-09-13T14:24:45;5.00;;;2.33;;
29214;SDS011;16252;49.816;7.964;2022-09-13T14:29:54;3.00;;;2.25;;
29214;SDS011;16252;49.816;7.964;2022-09-13T14:32:24;3.65;;;2.30;;
29214;SDS011;16252;49.816;7.964;2022-09-13T14:34:56;4.85;;;2.33;;
29214;SDS011;16252;49.816;7.964;2022-09-13T14:37:24;3.75;;;2.58;;
29214;SDS011;16252;49.816;7.964;2022-09-13T14:42:45;2.63;;;2.20;;
29214;SDS011;16252;49.816;7.964;2022-09-13T14:45:31;2.42;;;2.17;;
29214;SDS011;16252;49.816;7.964;2022-09-13T14:48:14;2.40;;;1.98;;
29214;SDS011;16252;49.816;7.964;2022-09-13T14:50:47;2.80;;;2.50;;
29214;SDS011;16252;49.816;7.964;2022-09-13T14:53:21;2.45;;;2.25;;
29214;SDS011;16252;49.816;7.964;2022-09-13T14:55:50;2.70;;;2.25;;
29214;SDS011;16252;49.816;7.964;2022-09-13T14:58:24;2.63;;;2.17;;
29214;SDS011;16252;49.816;7.964;2022-09-13T15:00:57;2.45;;;2.17;;
29214;SDS011;16252;49.816;7.964;2022-09-13T15:03:24;2.92;;;2.17;;
29214;SDS011;16252;49.816;7.964;2022-09-13T15:05:52;2.42;;;2.22;;
29214;SDS011;16252;49.816;7.964;2022-09-13T15:10:56;2.38;;;2.05;;
29214;SDS011;16252;49.816;7.964;2022-09-13T15:13:22;3.97;;;2.25;;
29214;SDS011;16252;49.816;7.964;2022-09-13T15:15:47;2.88;;;2.47;;
29214;SDS011;16252;49.816;7.964;2022-09-13T15:20:48;4.50;;;2.88;;
29214;SDS011;16252;49.816;7.964;2022-09-13T15:23:17;5.05;;;3.50;;
29214;SDS011;16252;49.816;7.964;2022-09-13T15:25:49;4.57;;;3.15;;
29214;SDS011;16252;49.816;7.964;2022-09-13T15:28:27;5.75;;;3.65;;
29214;SDS011;16252;49.816;7.964;2022-09-13T15:30:55;6.88;;;3.30;;
29214;SDS011;16252;49.816;7.964;2022-09-13T15:33:29;4.32;;;2.90;;
29214;SDS011;16252;49.816;7.964;2022-09-13T15:38:59;3.70;;;2.65;;
29214;SDS011;16252;49.816;7.964;2022-09-13T15:41:56;3.45;;;2.90;;
29214;SDS011;16252;49.816;7.964;2022-09-13T15:44:24;2.80;;;2.42;;
29214;SDS011;16252;49.816;7.964;2022-09-13T15:47:06;4.35;;;3.10;;
29214;SDS011;16252;49.816;7.964;2022-09-13T15:49:33;4.78;;;3.15;;
29214;SDS011;16252;49.816;7.964;2022-09-13T15:52:00;3.20;;;2.42;;
29214;SDS011;16252;49.816;7.964;2022-09-13T15:54:34;2.58;;;2.15;;
29214;SDS011;16252;49.816;7.964;2022-09-13T15:57:08;6.45;;;2.40;;
29214;SDS011;16252;49.816;7.964;2022-09-13T15:59:40;2.55;;;2.20;;
29214;SDS011;16252;49.816;7.964;2022-09-13T16:02:15;3.05;;;1.85;;
29214;SDS011;16252;49.816;7.964;2022-09-13T16:04:43;4.90;;;1.58;;
29214;SDS011;16252;49.816;7.964;2022-09-13T16:07:08;2.83;;;2.10;;
29214;SDS011;16252;49.816;7.964;2022-09-13T16:09:34;3.25;;;2.08;;
29214;SDS011;16252;49.816;7.964;2022-09-13T16:11:59;2.40;;;2.20;;
29214;SDS011;16252;49.816;7.964;2022-09-13T16:14:24;3.17;;;2.28;;
29214;SDS011;16252;49.816;7.964;2022-09-13T16:16:50;2.90;;;2.28;;
29214;SDS011;16252;49.816;7.964;2022-09-13T16:19:19;2.80;;;2.30;;
29214;SDS011;16252;49.816;7.964;2022-09-13T16:21:46;3.15;;;2.50;;
29214;SDS011;16252;49.816;7.964;2022-09-13T16:24:12;2.85;;;2.20;;
29214;SDS011;16252;49.816;7.964;2022-09-13T16:26:38;3.85;;;2.58;;
29214;SDS011;16252;49.816;7.964;2022-09-13T16:29:04;2.75;;;2.30;;
29214;SDS011;16252;49.816;7.964;2022-09-13T16:31:30;2.38;;;2.17;;
29214;SDS011;16252;49.816;7.964;2022-09-13T16:33:55;2.58;;;2.08;;
29214;SDS011;16252;49.816;7.964;2022-09-13T16:36:20;2.40;;;2.10;;
29214;SDS011;16252;49.816;7.964;2022-09-13T16:38:46;2.30;;;1.90;;
29214;SDS011;16252;49.816;7.964;2022-09-13T16:41:12;2.50;;;2.15;;
29214;SDS011;16252;49.816;7.964;2022-09-13T16:43:37;3.15;;;2.63;;
29214;SDS011;16252;49.816;7.964;2022-09-13T16:46:06;2.85;;;2.38;;
29214;SDS011;16252;49.816;7.964;2022-09-13T16:48:33;3.45;;;2.17;;
29214;SDS011;16252;49.816;7.964;2022-09-13T16:51:03;4.35;;;2.28;;
29214;SDS011;16252;49.816;7.964;2022-09-13T16:53:30;2.72;;;1.92;;
29214;SDS011;16252;49.816;7.964;2022-09-13T16:56:10;2.95;;;2.47;;
29214;SDS011;16252;49.816;7.964;2022-09-13T16:58:38;3.33;;;2.20;;
29214;SDS011;16252;49.816;7.964;2022-09-13T17:01:05;3.60;;;2.50;;
29214;SDS011;16252;49.816;7.964;2022-09-13T17:03:31;4.32;;;2.10;;
29214;SDS011;16252;49.816;7.964;2022-09-13T17:06:00;3.33;;;2.47;;
29214;SDS011;16252;49.816;7.964;2022-09-13T17:08:30;3.00;;;2.05;;
29214;SDS011;16252;49.816;7.964;2022-09-13T17:10:56;2.03;;;1.67;;
29214;SDS011;16252;49.816;7.964;2022-09-13T17:13:21;2.70;;;2.20;;
29214;SDS011;16252;49.816;7.964;2022-09-13T17:15:48;4.18;;;2.40;;
29214;SDS011;16252;49.816;7.964;2022-09-13T17:18:13;2.60;;;2.17;;
29214;SDS011;16252;49.816;7.964;2022-09-13T17:20:42;3.13;;;2.25;;
29214;SDS011;16252;49.816;7.964;2022-09-13T17:23:11;2.90;;;2.47;;
29214;SDS011;16252;49.816;7.964;2022-09-13T17:25:39;3.63;;;2.60;;
29214;SDS011;16252;49.816;7.964;2022-09-13T17:28:07;7.88;;;3.00;;
29214;SDS011;16252;49.816;7.964;2022-09-13T17:30:32;3.72;;;2.47;;
29214;SDS011;16252;49.816;7.964;2022-09-13T17:32:57;2.80;;;2.50;;
29214;SDS011;16252;49.816;7.964;2022-09-13T17:35:23;2.65;;;2.00;;
29214;SDS011;16252;49.816;7.964;2022-09-13T17:37:49;3.55;;;2.58;;
29214;SDS011;16252;49.816;7.964;2022-09-13T17:40:14;3.00;;;2.70;;
29214;SDS011;16252;49.816;7.964;2022-09-13T17:42:39;3.63;;;2.80;;
29214;SDS011;16252;49.816;7.964;2022-09-13T17:45:06;3.05;;;2.78;;
29214;SDS011;16252;49.816;7.964;2022-09-13T17:47:31;3.95;;;2.75;;
29214;SDS011;16252;49.816;7.964;2022-09-13T17:49:57;2.85;;;2.30;;
29214;SDS011;16252;49.816;7.964;2022-09-13T17:52:22;2.70;;;2.40;;
29214;SDS011;16252;49.816;7.964;2022-09-13T17:54:47;2.40;;;1.92;;
29214;SDS011;16252;49.816;7.964;2022-09-13T17:57:14;2.75;;;2.25;;
29214;SDS011;16252;49.816;7.964;2022-09-13T17:59:39;2.90;;;2.10;;
29214;SDS011;16252;49.816;7.964;2022-09-13T18:02:05;3.80;;;2.13;;
29214;SDS011;16252;49.816;7.964;2022-09-13T18:04:30;3.22;;;2.20;;
29214;SDS011;16252;49.816;7.964;2022-09-13T18:06:56;4.07;;;2.70;;
29214;SDS011;16252;49.816;7.964;2022-09-13T18:09:21;4.07;;;2.70;;
29214;SDS011;16252;49.816;7.964;2022-09-13T18:11:46;2.80;;;2.50;;
29214;SDS011;16252;49.816;7.964;2022-09-13T18:14:13;4.05;;;2.22;;
29214;SDS011;16252;49.816;7.964;2022-09-13T18:16:39;4.18;;;2.50;;
29214;SDS011;16252;49.816;7.964;2022-09-13T18:19:05;2.83;;;2.63;;
29214;SDS011;16252;49.816;7.964;2022-09-13T18:21:31;4.15;;;2.70;;
29214;SDS011;16252;49.816;7.964;2022-09-13T18:23:57;3.83;;;2.72;;
29214;SDS011;16252;49.816;7.964;2022-09-13T18:26:24;4.25;;;2.85;;
29214;SDS011;16252;49.816;7.964;2022-09-13T18:28:54;2.90;;;2.50;;
29214;SDS011;16252;49.816;7.964;2022-09-13T18:31:25;3.70;;;2.55;;
29214;SDS011;16252;49.816;7.964;2022-09-13T18:33:56;3.67;;;2.70;;
29214;SDS011;16252;49.816;7.964;2022-09-13T18:36:23;2.90;;;2.60;;